sensor_id;sensor_type;location;lat;lon;timestamp;pressure;altitude;pressure_sealevel;temperature
69420;BMP280;56612;52.030;113.524;2023-04-24T00:02:28;94123.66;;;1.67
69420;BMP280;56612;52.030;113.524;2023-04-24T00:05:32;94121.84;;;1.69
69420;BMP280;56612;52.030;113.524;2023-04-24T00:08:36;94117.81;;;1.78
69420;BMP280;56612;52.030;113.524;2023-04-24T00:11:39;94115.78;;;1.98
69420;BMP280;56612;52.030;113.524;2023-04-24T00:14:44;94115.66;;;1.96
69420;BMP280;56612;52.030;113.524;2023-04-24T00:17:48;94115.25;;;1.99
69420;BMP280;56612;52.030;113.524;2023-04-24T00:20:52;94112.13;;;2.13
69420;BMP280;56612;52.030;113.524;2023-04-24T00:23:55;94105.19;;;2.08
69420;BMP280;56612;52.030;113.524;2023-04-24T00:26:59;94116.06;;;2.02
69420;BMP280;56612;52.030;113.524;2023-04-24T00:30:05;94115.72;;;2.17
69420;BMP280;56612;52.030;113.524;2023-04-24T00:33:12;94099.59;;;2.23
69420;BMP280;56612;52.030;113.524;2023-04-24T00:36:16;94090.72;;;2.40
69420;BMP280;56612;52.030;113.524;2023-04-24T00:39:22;94090.19;;;2.41
69420;BMP280;56612;52.030;113.524;2023-04-24T00:42:25;94099.13;;;2.57
69420;BMP280;56612;52.030;113.524;2023-04-24T00:45:30;94092.09;;;2.72
69420;BMP280;56612;52.030;113.524;2023-04-24T00:48:34;94085.53;;;2.94
69420;BMP280;56612;52.030;113.524;2023-04-24T00:51:38;94084.53;;;3.11
69420;BMP280;56612;52.030;113.524;2023-04-24T00:54:44;94082.06;;;2.91
69420;BMP280;56612;52.030;113.524;2023-04-24T00:57:49;94076.31;;;2.95
69420;BMP280;56612;52.030;113.524;2023-04-24T01:00:54;94067.38;;;3.00
69420;BMP280;56612;52.030;113.524;2023-04-24T01:03:59;94070.41;;;3.06
69420;BMP280;56612;52.030;113.524;2023-04-24T01:07:04;94063.44;;;3.22
69420;BMP280;56612;52.030;113.524;2023-04-24T01:10:14;94056.94;;;3.47
69420;BMP280;56612;52.030;113.524;2023-04-24T01:13:20;94059.25;;;3.64
69420;BMP280;56612;52.030;113.524;2023-04-24T01:16:24;94067.97;;;3.78
69420;BMP280;56612;52.030;113.524;2023-04-24T01:19:28;94043.84;;;3.96
69420;BMP280;56612;52.030;113.524;2023-04-24T01:22:34;94053.91;;;4.23
69420;BMP280;56612;52.030;113.524;2023-04-24T01:25:37;94052.03;;;4.48
69420;BMP280;56612;52.030;113.524;2023-04-24T01:28:42;94044.72;;;4.61
69420;BMP280;56612;52.030;113.524;2023-04-24T01:31:46;94054.00;;;4.73
69420;BMP280;56612;52.030;113.524;2023-04-24T01:34:51;94051.28;;;4.85
69420;BMP280;56612;52.030;113.524;2023-04-24T01:37:55;94050.75;;;5.26
69420;BMP280;56612;52.030;113.524;2023-04-24T01:40:59;94047.94;;;6.18
69420;BMP280;56612;52.030;113.524;2023-04-24T01:44:03;94048.72;;;6.50
69420;BMP280;56612;52.030;113.524;2023-04-24T01:47:07;94052.03;;;6.64
69420;BMP280;56612;52.030;113.524;2023-04-24T01:50:11;94047.38;;;6.94
69420;BMP280;56612;52.030;113.524;2023-04-24T01:53:15;94040.34;;;7.63
69420;BMP280;56612;52.030;113.524;2023-04-24T01:56:22;94039.94;;;8.03
69420;BMP280;56612;52.030;113.524;2023-04-24T01:59:27;94040.28;;;8.46
69420;BMP280;56612;52.030;113.524;2023-04-24T02:02:32;94037.19;;;8.89
69420;BMP280;56612;52.030;113.524;2023-04-24T02:05:35;94042.22;;;8.99
69420;BMP280;56612;52.030;113.524;2023-04-24T02:08:38;94026.50;;;9.47
69420;BMP280;56612;52.030;113.524;2023-04-24T02:11:42;94030.31;;;9.81
69420;BMP280;56612;52.030;113.524;2023-04-24T02:14:46;94017.59;;;9.60
69420;BMP280;56612;52.030;113.524;2023-04-24T02:17:50;94015.00;;;9.03
69420;BMP280;56612;52.030;113.524;2023-04-24T02:20:54;94012.06;;;9.34
69420;BMP280;56612;52.030;113.524;2023-04-24T02:23:58;94002.88;;;9.59
69420;BMP280;56612;52.030;113.524;2023-04-24T02:27:02;94001.81;;;10.32
69420;BMP280;56612;52.030;113.524;2023-04-24T02:30:06;94014.88;;;11.17
69420;BMP280;56612;52.030;113.524;2023-04-24T02:33:11;94009.56;;;11.45
69420;BMP280;56612;52.030;113.524;2023-04-24T02:36:16;94001.00;;;11.50
69420;BMP280;56612;52.030;113.524;2023-04-24T02:39:20;94004.47;;;11.83
69420;BMP280;56612;52.030;113.524;2023-04-24T02:42:24;94014.66;;;12.18
69420;BMP280;56612;52.030;113.524;2023-04-24T02:45:28;94004.28;;;12.35
69420;BMP280;56612;52.030;113.524;2023-04-24T02:48:31;93994.47;;;13.53
69420;BMP280;56612;52.030;113.524;2023-04-24T02:51:35;93985.22;;;13.24
69420;BMP280;56612;52.030;113.524;2023-04-24T02:54:41;93977.69;;;13.15
69420;BMP280;56612;52.030;113.524;2023-04-24T02:57:45;93976.22;;;13.92
69420;BMP280;56612;52.030;113.524;2023-04-24T03:00:49;93978.00;;;14.23
69420;BMP280;56612;52.030;113.524;2023-04-24T03:03:55;93969.38;;;14.33
69420;BMP280;56612;52.030;113.524;2023-04-24T03:07:00;93972.84;;;14.39
69420;BMP280;56612;52.030;113.524;2023-04-24T03:10:04;93961.41;;;15.01
69420;BMP280;56612;52.030;113.524;2023-04-24T03:13:09;93965.00;;;15.22
69420;BMP280;56612;52.030;113.524;2023-04-24T03:16:12;93967.47;;;15.84
69420;BMP280;56612;52.030;113.524;2023-04-24T03:19:16;93958.31;;;16.36
69420;BMP280;56612;52.030;113.524;2023-04-24T03:22:32;93967.19;;;16.59
69420;BMP280;56612;52.030;113.524;2023-04-24T03:25:40;93957.06;;;16.58
69420;BMP280;56612;52.030;113.524;2023-04-24T03:28:47;93947.03;;;17.17
69420;BMP280;56612;52.030;113.524;2023-04-24T03:31:51;93946.31;;;16.82
69420;BMP280;56612;52.030;113.524;2023-04-24T03:34:56;93945.00;;;17.44
69420;BMP280;56612;52.030;113.524;2023-04-24T03:37:59;93939.59;;;17.68
69420;BMP280;56612;52.030;113.524;2023-04-24T03:41:22;93936.22;;;17.61
69420;BMP280;56612;52.030;113.524;2023-04-24T03:44:30;93938.94;;;17.15
69420;BMP280;56612;52.030;113.524;2023-04-24T03:47:34;93938.91;;;17.55
69420;BMP280;56612;52.030;113.524;2023-04-24T03:50:40;93932.50;;;18.62
69420;BMP280;56612;52.030;113.524;2023-04-24T03:53:45;93928.84;;;19.04
69420;BMP280;56612;52.030;113.524;2023-04-24T03:56:53;93931.03;;;19.63
69420;BMP280;56612;52.030;113.524;2023-04-24T03:59:59;93922.31;;;19.54
69420;BMP280;56612;52.030;113.524;2023-04-24T04:03:04;93925.72;;;19.51
69420;BMP280;56612;52.030;113.524;2023-04-24T04:06:07;93914.63;;;19.75
69420;BMP280;56612;52.030;113.524;2023-04-24T04:09:11;93921.78;;;20.03
69420;BMP280;56612;52.030;113.524;2023-04-24T04:12:15;93904.00;;;20.14
69420;BMP280;56612;52.030;113.524;2023-04-24T04:15:18;93900.13;;;19.99
69420;BMP280;56612;52.030;113.524;2023-04-24T04:18:24;93900.53;;;19.63
69420;BMP280;56612;52.030;113.524;2023-04-24T04:21:28;93905.69;;;20.42
69420;BMP280;56612;52.030;113.524;2023-04-24T04:24:42;93894.88;;;20.85
69420;BMP280;56612;52.030;113.524;2023-04-24T04:27:46;93886.84;;;20.32
69420;BMP280;56612;52.030;113.524;2023-04-24T04:30:52;93885.84;;;20.54
69420;BMP280;56612;52.030;113.524;2023-04-24T04:34:01;93881.31;;;20.38
69420;BMP280;56612;52.030;113.524;2023-04-24T04:37:06;93888.16;;;19.78
69420;BMP280;56612;52.030;113.524;2023-04-24T04:40:22;93875.66;;;20.03
69420;BMP280;56612;52.030;113.524;2023-04-24T04:43:32;93866.25;;;19.98
69420;BMP280;56612;52.030;113.524;2023-04-24T04:46:38;93856.41;;;17.89
69420;BMP280;56612;52.030;113.524;2023-04-24T04:49:56;93857.16;;;17.53
69420;BMP280;56612;52.030;113.524;2023-04-24T04:53:02;93857.81;;;17.55
69420;BMP280;56612;52.030;113.524;2023-04-24T04:56:09;93845.44;;;18.21
69420;BMP280;56612;52.030;113.524;2023-04-24T04:59:19;93843.44;;;19.75
69420;BMP280;56612;52.030;113.524;2023-04-24T05:02:28;93845.84;;;19.42
69420;BMP280;56612;52.030;113.524;2023-04-24T05:05:31;93849.91;;;20.02
69420;BMP280;56612;52.030;113.524;2023-04-24T05:08:35;93842.91;;;20.19
69420;BMP280;56612;52.030;113.524;2023-04-24T05:11:42;93825.19;;;20.24
69420;BMP280;56612;52.030;113.524;2023-04-24T05:14:46;93843.81;;;19.99
69420;BMP280;56612;52.030;113.524;2023-04-24T05:17:50;93830.81;;;20.55
69420;BMP280;56612;52.030;113.524;2023-04-24T05:20:55;93830.09;;;20.59
69420;BMP280;56612;52.030;113.524;2023-04-24T05:24:00;93828.44;;;21.54
69420;BMP280;56612;52.030;113.524;2023-04-24T05:27:22;93823.56;;;22.24
69420;BMP280;56612;52.030;113.524;2023-04-24T05:30:26;93824.00;;;22.64
69420;BMP280;56612;52.030;113.524;2023-04-24T05:33:29;93819.38;;;21.98
69420;BMP280;56612;52.030;113.524;2023-04-24T05:36:33;93812.34;;;23.21
69420;BMP280;56612;52.030;113.524;2023-04-24T05:39:37;93801.94;;;22.74
69420;BMP280;56612;52.030;113.524;2023-04-24T05:42:41;93804.44;;;21.65
69420;BMP280;56612;52.030;113.524;2023-04-24T05:45:44;93800.97;;;23.12
69420;BMP280;56612;52.030;113.524;2023-04-24T05:48:48;93796.81;;;24.96
69420;BMP280;56612;52.030;113.524;2023-04-24T05:51:52;93788.41;;;23.73
69420;BMP280;56612;52.030;113.524;2023-04-24T05:54:56;93790.28;;;24.45
69420;BMP280;56612;52.030;113.524;2023-04-24T05:58:06;93805.44;;;24.83
69420;BMP280;56612;52.030;113.524;2023-04-24T06:01:12;93791.47;;;25.68
69420;BMP280;56612;52.030;113.524;2023-04-24T06:04:20;93780.34;;;25.72
69420;BMP280;56612;52.030;113.524;2023-04-24T06:07:25;93785.00;;;25.76
69420;BMP280;56612;52.030;113.524;2023-04-24T06:10:30;93776.53;;;25.28
69420;BMP280;56612;52.030;113.524;2023-04-24T06:13:33;93776.19;;;24.99
69420;BMP280;56612;52.030;113.524;2023-04-24T06:17:02;93748.09;;;23.96
69420;BMP280;56612;52.030;113.524;2023-04-24T06:20:11;93747.31;;;22.80
69420;BMP280;56612;52.030;113.524;2023-04-24T06:23:15;93756.94;;;24.82
69420;BMP280;56612;52.030;113.524;2023-04-24T06:26:19;93742.03;;;26.25
69420;BMP280;56612;52.030;113.524;2023-04-24T06:29:23;93752.59;;;26.99
69420;BMP280;56612;52.030;113.524;2023-04-24T06:32:27;93761.22;;;26.25
69420;BMP280;56612;52.030;113.524;2023-04-24T06:35:31;93736.69;;;25.87
69420;BMP280;56612;52.030;113.524;2023-04-24T06:38:34;93741.78;;;25.95
69420;BMP280;56612;52.030;113.524;2023-04-24T06:41:38;93736.34;;;25.22
69420;BMP280;56612;52.030;113.524;2023-04-24T06:44:49;93740.19;;;22.09
69420;BMP280;56612;52.030;113.524;2023-04-24T06:47:53;93739.16;;;21.95
69420;BMP280;56612;52.030;113.524;2023-04-24T06:50:57;93730.09;;;22.88
69420;BMP280;56612;52.030;113.524;2023-04-24T06:54:00;93724.28;;;24.57
69420;BMP280;56612;52.030;113.524;2023-04-24T06:57:05;93713.16;;;24.63
69420;BMP280;56612;52.030;113.524;2023-04-24T07:00:09;93718.56;;;23.57
69420;BMP280;56612;52.030;113.524;2023-04-24T07:03:13;93720.69;;;23.07
69420;BMP280;56612;52.030;113.524;2023-04-24T07:06:17;93727.59;;;24.18
69420;BMP280;56612;52.030;113.524;2023-04-24T07:09:22;93711.94;;;24.79
69420;BMP280;56612;52.030;113.524;2023-04-24T07:12:27;93704.34;;;25.38
69420;BMP280;56612;52.030;113.524;2023-04-24T07:15:30;93700.13;;;25.03
69420;BMP280;56612;52.030;113.524;2023-04-24T07:18:36;93712.56;;;26.08
69420;BMP280;56612;52.030;113.524;2023-04-24T07:21:40;93720.25;;;25.87
69420;BMP280;56612;52.030;113.524;2023-04-24T07:24:44;93697.50;;;26.41
69420;BMP280;56612;52.030;113.524;2023-04-24T07:27:48;93710.38;;;26.92
69420;BMP280;56612;52.030;113.524;2023-04-24T07:30:52;93699.53;;;27.05
69420;BMP280;56612;52.030;113.524;2023-04-24T07:33:57;93703.66;;;26.89
69420;BMP280;56612;52.030;113.524;2023-04-24T07:37:04;93696.56;;;26.63
69420;BMP280;56612;52.030;113.524;2023-04-24T07:40:07;93695.19;;;26.31
69420;BMP280;56612;52.030;113.524;2023-04-24T07:43:11;93684.78;;;23.69
69420;BMP280;56612;52.030;113.524;2023-04-24T07:46:14;93681.34;;;20.98
69420;BMP280;56612;52.030;113.524;2023-04-24T07:49:18;93690.44;;;20.05
69420;BMP280;56612;52.030;113.524;2023-04-24T07:52:21;93688.56;;;23.57
69420;BMP280;56612;52.030;113.524;2023-04-24T07:55:25;93682.34;;;25.58
69420;BMP280;56612;52.030;113.524;2023-04-24T07:58:29;93676.38;;;25.70
69420;BMP280;56612;52.030;113.524;2023-04-24T08:01:34;93680.09;;;25.98
69420;BMP280;56612;52.030;113.524;2023-04-24T08:04:38;93679.06;;;24.60
69420;BMP280;56612;52.030;113.524;2023-04-24T08:07:42;93673.94;;;25.62
69420;BMP280;56612;52.030;113.524;2023-04-24T08:10:46;93674.84;;;27.34
69420;BMP280;56612;52.030;113.524;2023-04-24T08:13:49;93673.88;;;27.98
69420;BMP280;56612;52.030;113.524;2023-04-24T08:16:56;93681.59;;;28.63
69420;BMP280;56612;52.030;113.524;2023-04-24T08:20:00;93671.66;;;28.56
69420;BMP280;56612;52.030;113.524;2023-04-24T08:23:04;93659.09;;;28.86
69420;BMP280;56612;52.030;113.524;2023-04-24T08:26:09;93667.53;;;27.87
69420;BMP280;56612;52.030;113.524;2023-04-24T08:29:13;93660.06;;;27.71
69420;BMP280;56612;52.030;113.524;2023-04-24T08:32:17;93658.56;;;28.16
69420;BMP280;56612;52.030;113.524;2023-04-24T08:35:23;93658.03;;;27.99
69420;BMP280;56612;52.030;113.524;2023-04-24T08:38:26;93650.91;;;28.04
69420;BMP280;56612;52.030;113.524;2023-04-24T08:41:30;93649.19;;;29.90
69420;BMP280;56612;52.030;113.524;2023-04-24T08:44:35;93664.97;;;29.30
69420;BMP280;56612;52.030;113.524;2023-04-24T08:47:41;93657.22;;;28.82
69420;BMP280;56612;52.030;113.524;2023-04-24T08:50:45;93647.50;;;28.04
69420;BMP280;56612;52.030;113.524;2023-04-24T08:53:49;93647.75;;;28.12
69420;BMP280;56612;52.030;113.524;2023-04-24T08:56:57;93643.91;;;28.07
69420;BMP280;56612;52.030;113.524;2023-04-24T09:00:02;93653.81;;;28.95
69420;BMP280;56612;52.030;113.524;2023-04-24T09:03:06;93655.19;;;28.28
69420;BMP280;56612;52.030;113.524;2023-04-24T09:06:11;93659.31;;;27.29
69420;BMP280;56612;52.030;113.524;2023-04-24T09:09:16;93640.69;;;27.46
69420;BMP280;56612;52.030;113.524;2023-04-24T09:12:22;93649.53;;;26.56
69420;BMP280;56612;52.030;113.524;2023-04-24T09:15:26;93639.59;;;26.80
69420;BMP280;56612;52.030;113.524;2023-04-24T09:18:30;93639.59;;;25.49
69420;BMP280;56612;52.030;113.524;2023-04-24T09:21:34;93631.06;;;26.40
69420;BMP280;56612;52.030;113.524;2023-04-24T09:24:39;93633.72;;;25.59
69420;BMP280;56612;52.030;113.524;2023-04-24T09:27:43;93647.03;;;26.02
69420;BMP280;56612;52.030;113.524;2023-04-24T09:31:05;93639.50;;;26.82
69420;BMP280;56612;52.030;113.524;2023-04-24T09:34:08;93636.03;;;26.36
69420;BMP280;56612;52.030;113.524;2023-04-24T09:37:37;93640.53;;;25.76
69420;BMP280;56612;52.030;113.524;2023-04-24T09:40:39;93631.50;;;25.80
69420;BMP280;56612;52.030;113.524;2023-04-24T09:43:42;93629.72;;;26.39
69420;BMP280;56612;52.030;113.524;2023-04-24T09:46:53;93633.03;;;26.42
69420;BMP280;56612;52.030;113.524;2023-04-24T09:50:09;93632.63;;;26.35
69420;BMP280;56612;52.030;113.524;2023-04-24T09:53:13;93626.84;;;25.60
69420;BMP280;56612;52.030;113.524;2023-04-24T09:56:17;93637.06;;;25.26
69420;BMP280;56612;52.030;113.524;2023-04-24T09:59:22;93635.25;;;24.43
69420;BMP280;56612;52.030;113.524;2023-04-24T10:02:25;93631.34;;;23.33
69420;BMP280;56612;52.030;113.524;2023-04-24T10:05:34;93633.59;;;23.01
69420;BMP280;56612;52.030;113.524;2023-04-24T10:11:42;93626.84;;;21.68
69420;BMP280;56612;52.030;113.524;2023-04-24T10:14:49;93605.56;;;20.47
69420;BMP280;56612;52.030;113.524;2023-04-24T10:17:53;93615.59;;;20.20
69420;BMP280;56612;52.030;113.524;2023-04-24T10:21:00;93617.41;;;20.31
69420;BMP280;56612;52.030;113.524;2023-04-24T10:24:05;93612.13;;;18.80
69420;BMP280;56612;52.030;113.524;2023-04-24T10:27:11;93612.19;;;18.74
69420;BMP280;56612;52.030;113.524;2023-04-24T10:30:18;93609.19;;;18.41
69420;BMP280;56612;52.030;113.524;2023-04-24T10:33:22;93602.56;;;17.32
69420;BMP280;56612;52.030;113.524;2023-04-24T10:36:28;93597.53;;;15.76
69420;BMP280;56612;52.030;113.524;2023-04-24T10:39:32;93604.19;;;14.05
69420;BMP280;56612;52.030;113.524;2023-04-24T10:42:40;93602.91;;;13.42
69420;BMP280;56612;52.030;113.524;2023-04-24T10:46:04;93599.03;;;12.94
69420;BMP280;56612;52.030;113.524;2023-04-24T10:49:08;93603.19;;;12.53
69420;BMP280;56612;52.030;113.524;2023-04-24T10:52:14;93595.66;;;11.59
69420;BMP280;56612;52.030;113.524;2023-04-24T10:55:44;93602.22;;;11.16
69420;BMP280;56612;52.030;113.524;2023-04-24T10:58:53;93606.00;;;11.05
69420;BMP280;56612;52.030;113.524;2023-04-24T11:01:57;93598.91;;;10.84
69420;BMP280;56612;52.030;113.524;2023-04-24T11:05:03;93601.47;;;10.50
69420;BMP280;56612;52.030;113.524;2023-04-24T11:08:15;93602.72;;;10.17
69420;BMP280;56612;52.030;113.524;2023-04-24T11:11:19;93599.28;;;10.12
69420;BMP280;56612;52.030;113.524;2023-04-24T11:14:24;93601.72;;;10.02
69420;BMP280;56612;52.030;113.524;2023-04-24T11:20:38;93611.34;;;9.36
69420;BMP280;56612;52.030;113.524;2023-04-24T11:23:45;93612.25;;;8.97
69420;BMP280;56612;52.030;113.524;2023-04-24T11:26:54;93611.72;;;8.78
69420;BMP280;56612;52.030;113.524;2023-04-24T11:30:01;93612.06;;;8.67
69420;BMP280;56612;52.030;113.524;2023-04-24T11:33:06;93603.69;;;8.33
69420;BMP280;56612;52.030;113.524;2023-04-24T11:36:11;93609.00;;;8.11
69420;BMP280;56612;52.030;113.524;2023-04-24T11:39:15;93599.69;;;7.90
69420;BMP280;56612;52.030;113.524;2023-04-24T11:42:20;93600.50;;;7.75
69420;BMP280;56612;52.030;113.524;2023-04-24T11:45:26;93609.50;;;7.66
69420;BMP280;56612;52.030;113.524;2023-04-24T11:48:36;93608.53;;;7.57
69420;BMP280;56612;52.030;113.524;2023-04-24T11:51:43;93610.31;;;7.30
69420;BMP280;56612;52.030;113.524;2023-04-24T11:54:56;93607.81;;;7.17
69420;BMP280;56612;52.030;113.524;2023-04-24T11:58:00;93604.63;;;7.03
69420;BMP280;56612;52.030;113.524;2023-04-24T12:01:05;93609.59;;;6.92
69420;BMP280;56612;52.030;113.524;2023-04-24T12:04:09;93605.50;;;6.89
69420;BMP280;56612;52.030;113.524;2023-04-24T12:07:13;93603.28;;;6.84
69420;BMP280;56612;52.030;113.524;2023-04-24T12:10:25;93606.09;;;6.70
69420;BMP280;56612;52.030;113.524;2023-04-24T12:13:30;93608.31;;;6.58
69420;BMP280;56612;52.030;113.524;2023-04-24T12:16:34;93607.84;;;6.46
69420;BMP280;56612;52.030;113.524;2023-04-24T12:19:47;93612.53;;;6.47
69420;BMP280;56612;52.030;113.524;2023-04-24T12:22:56;93612.91;;;6.40
69420;BMP280;56612;52.030;113.524;2023-04-24T12:26:01;93610.16;;;6.38
69420;BMP280;56612;52.030;113.524;2023-04-24T12:29:07;93607.03;;;6.25
69420;BMP280;56612;52.030;113.524;2023-04-24T12:32:17;93607.06;;;6.10
69420;BMP280;56612;52.030;113.524;2023-04-24T12:35:23;93611.44;;;6.03
69420;BMP280;56612;52.030;113.524;2023-04-24T12:38:28;93608.28;;;5.91
69420;BMP280;56612;52.030;113.524;2023-04-24T12:42:09;93605.81;;;5.95
69420;BMP280;56612;52.030;113.524;2023-04-24T12:45:13;93601.47;;;5.86
69420;BMP280;56612;52.030;113.524;2023-04-24T12:48:16;93601.56;;;5.72
69420;BMP280;56612;52.030;113.524;2023-04-24T12:51:20;93605.34;;;5.67
69420;BMP280;56612;52.030;113.524;2023-04-24T12:54:24;93604.47;;;5.62
69420;BMP280;56612;52.030;113.524;2023-04-24T12:57:29;93613.28;;;5.67
69420;BMP280;56612;52.030;113.524;2023-04-24T13:00:33;93617.50;;;5.56
69420;BMP280;56612;52.030;113.524;2023-04-24T13:03:36;93611.31;;;5.52
69420;BMP280;56612;52.030;113.524;2023-04-24T13:06:40;93615.16;;;5.49
69420;BMP280;56612;52.030;113.524;2023-04-24T13:09:44;93616.78;;;5.40
69420;BMP280;56612;52.030;113.524;2023-04-24T13:12:47;93620.25;;;5.29
69420;BMP280;56612;52.030;113.524;2023-04-24T13:15:51;93609.22;;;5.19
69420;BMP280;56612;52.030;113.524;2023-04-24T13:18:55;93617.97;;;5.21
69420;BMP280;56612;52.030;113.524;2023-04-24T13:21:58;93613.16;;;5.18
69420;BMP280;56612;52.030;113.524;2023-04-24T13:25:02;93619.81;;;5.19
69420;BMP280;56612;52.030;113.524;2023-04-24T13:28:06;93626.69;;;5.24
69420;BMP280;56612;52.030;113.524;2023-04-24T13:31:09;93621.31;;;5.22
69420;BMP280;56612;52.030;113.524;2023-04-24T13:34:13;93617.88;;;5.19
69420;BMP280;56612;52.030;113.524;2023-04-24T13:37:17;93622.31;;;5.15
69420;BMP280;56612;52.030;113.524;2023-04-24T13:40:20;93623.81;;;5.04
69420;BMP280;56612;52.030;113.524;2023-04-24T13:43:24;93631.31;;;4.94
69420;BMP280;56612;52.030;113.524;2023-04-24T13:46:28;93623.59;;;4.84
69420;BMP280;56612;52.030;113.524;2023-04-24T13:49:32;93629.41;;;4.67
69420;BMP280;56612;52.030;113.524;2023-04-24T13:52:35;93629.81;;;4.61
69420;BMP280;56612;52.030;113.524;2023-04-24T13:55:38;93632.38;;;4.59
69420;BMP280;56612;52.030;113.524;2023-04-24T13:58:41;93636.53;;;4.48
69420;BMP280;56612;52.030;113.524;2023-04-24T14:01:46;93623.69;;;4.43
69420;BMP280;56612;52.030;113.524;2023-04-24T14:04:51;93625.06;;;4.30
69420;BMP280;56612;52.030;113.524;2023-04-24T14:07:54;93632.13;;;4.26
69420;BMP280;56612;52.030;113.524;2023-04-24T14:10:59;93620.38;;;4.29
69420;BMP280;56612;52.030;113.524;2023-04-24T14:14:05;93628.78;;;4.25
69420;BMP280;56612;52.030;113.524;2023-04-24T14:17:09;93619.19;;;4.18
69420;BMP280;56612;52.030;113.524;2023-04-24T14:20:12;93628.91;;;4.13
69420;BMP280;56612;52.030;113.524;2023-04-24T14:23:16;93627.25;;;4.06
69420;BMP280;56612;52.030;113.524;2023-04-24T14:26:21;93628.31;;;4.01
69420;BMP280;56612;52.030;113.524;2023-04-24T14:29:24;93618.63;;;3.92
69420;BMP280;56612;52.030;113.524;2023-04-24T14:32:32;93617.63;;;3.85
69420;BMP280;56612;52.030;113.524;2023-04-24T14:35:35;93621.34;;;3.80
69420;BMP280;56612;52.030;113.524;2023-04-24T14:38:39;93609.50;;;3.68
69420;BMP280;56612;52.030;113.524;2023-04-24T14:41:43;93615.03;;;3.60
69420;BMP280;56612;52.030;113.524;2023-04-24T14:44:46;93612.56;;;3.50
69420;BMP280;56612;52.030;113.524;2023-04-24T14:47:49;93617.16;;;3.50
69420;BMP280;56612;52.030;113.524;2023-04-24T14:50:53;93621.88;;;3.51
69420;BMP280;56612;52.030;113.524;2023-04-24T14:53:56;93617.25;;;3.52
69420;BMP280;56612;52.030;113.524;2023-04-24T14:57:00;93616.47;;;3.36
69420;BMP280;56612;52.030;113.524;2023-04-24T15:00:06;93612.03;;;3.26
69420;BMP280;56612;52.030;113.524;2023-04-24T15:03:11;93622.66;;;3.15
69420;BMP280;56612;52.030;113.524;2023-04-24T15:06:15;93616.84;;;3.05
69420;BMP280;56612;52.030;113.524;2023-04-24T15:09:18;93615.47;;;3.04
69420;BMP280;56612;52.030;113.524;2023-04-24T15:12:21;93615.31;;;2.88
69420;BMP280;56612;52.030;113.524;2023-04-24T15:15:24;93622.75;;;2.91
69420;BMP280;56612;52.030;113.524;2023-04-24T15:18:28;93617.59;;;2.93
69420;BMP280;56612;52.030;113.524;2023-04-24T15:21:32;93611.72;;;2.95
69420;BMP280;56612;52.030;113.524;2023-04-24T15:24:35;93609.03;;;2.81
69420;BMP280;56612;52.030;113.524;2023-04-24T15:27:41;93610.13;;;2.90
69420;BMP280;56612;52.030;113.524;2023-04-24T15:30:45;93607.63;;;2.80
69420;BMP280;56612;52.030;113.524;2023-04-24T15:33:50;93613.50;;;2.79
69420;BMP280;56612;52.030;113.524;2023-04-24T15:36:54;93605.88;;;2.59
69420;BMP280;56612;52.030;113.524;2023-04-24T15:39:58;93611.63;;;2.44
69420;BMP280;56612;52.030;113.524;2023-04-24T15:43:03;93609.91;;;2.49
69420;BMP280;56612;52.030;113.524;2023-04-24T15:46:09;93610.25;;;2.43
69420;BMP280;56612;52.030;113.524;2023-04-24T15:49:13;93610.72;;;2.51
69420;BMP280;56612;52.030;113.524;2023-04-24T15:52:17;93607.06;;;2.33
69420;BMP280;56612;52.030;113.524;2023-04-24T15:55:27;93613.38;;;2.28
69420;BMP280;56612;52.030;113.524;2023-04-24T15:58:32;93608.13;;;2.16
69420;BMP280;56612;52.030;113.524;2023-04-24T16:01:36;93611.69;;;2.21
69420;BMP280;56612;52.030;113.524;2023-04-24T16:04:39;93609.97;;;2.14
69420;BMP280;56612;52.030;113.524;2023-04-24T16:07:42;93606.97;;;2.08
69420;BMP280;56612;52.030;113.524;2023-04-24T16:10:46;93602.75;;;2.02
69420;BMP280;56612;52.030;113.524;2023-04-24T16:13:50;93604.00;;;2.01
69420;BMP280;56612;52.030;113.524;2023-04-24T16:16:53;93605.50;;;1.93
69420;BMP280;56612;52.030;113.524;2023-04-24T16:19:58;93611.44;;;1.93
69420;BMP280;56612;52.030;113.524;2023-04-24T16:23:02;93610.31;;;1.73
69420;BMP280;56612;52.030;113.524;2023-04-24T16:26:05;93610.84;;;1.60
69420;BMP280;56612;52.030;113.524;2023-04-24T16:29:08;93606.50;;;1.64
69420;BMP280;56612;52.030;113.524;2023-04-24T16:32:12;93593.91;;;1.63
69420;BMP280;56612;52.030;113.524;2023-04-24T16:35:15;93606.28;;;1.60
69420;BMP280;56612;52.030;113.524;2023-04-24T16:38:19;93607.28;;;1.55
69420;BMP280;56612;52.030;113.524;2023-04-24T16:41:23;93606.38;;;1.51
69420;BMP280;56612;52.030;113.524;2023-04-24T16:44:27;93594.81;;;1.56
69420;BMP280;56612;52.030;113.524;2023-04-24T16:47:30;93606.97;;;1.61
69420;BMP280;56612;52.030;113.524;2023-04-24T16:50:33;93600.91;;;1.58
69420;BMP280;56612;52.030;113.524;2023-04-24T16:53:37;93597.81;;;1.62
69420;BMP280;56612;52.030;113.524;2023-04-24T16:56:41;93592.31;;;1.58
69420;BMP280;56612;52.030;113.524;2023-04-24T16:59:44;93595.63;;;1.46
69420;BMP280;56612;52.030;113.524;2023-04-24T17:02:47;93600.88;;;1.46
69420;BMP280;56612;52.030;113.524;2023-04-24T17:05:52;93595.34;;;1.42
69420;BMP280;56612;52.030;113.524;2023-04-24T17:08:55;93592.38;;;1.36
69420;BMP280;56612;52.030;113.524;2023-04-24T17:11:59;93589.97;;;1.29
69420;BMP280;56612;52.030;113.524;2023-04-24T17:15:04;93583.53;;;1.20
69420;BMP280;56612;52.030;113.524;2023-04-24T17:18:08;93584.34;;;1.23
69420;BMP280;56612;52.030;113.524;2023-04-24T17:21:12;93584.91;;;1.21
69420;BMP280;56612;52.030;113.524;2023-04-24T17:24:16;93579.56;;;0.98
69420;BMP280;56612;52.030;113.524;2023-04-24T17:27:19;93580.25;;;0.65
69420;BMP280;56612;52.030;113.524;2023-04-24T17:30:22;93584.50;;;0.49
69420;BMP280;56612;52.030;113.524;2023-04-24T17:33:27;93574.72;;;0.61